sensor_id;sensor_type;location;lat;lon;timestamp;pressure;altitude;pressure_sealevel;temperature;humidity
54038;BME280;39954;48.844;9.726;2023-03-08T00:00:34;94704.50;;;1.22;73.18
54038;BME280;39954;48.844;9.726;2023-03-08T00:01:39;94715.44;;;1.25;73.32
54038;BME280;39954;48.844;9.726;2023-03-08T00:02:41;94703.47;;;1.26;73.24
54038;BME280;39954;48.844;9.726;2023-03-08T00:03:46;94706.03;;;1.26;72.61
54038;BME280;39954;48.844;9.726;2023-03-08T00:04:48;94709.63;;;1.22;72.90
54038;BME280;39954;48.844;9.726;2023-03-08T00:05:53;94712.44;;;1.16;74.21
54038;BME280;39954;48.844;9.726;2023-03-08T00:06:55;94717.63;;;1.14;73.87
54038;BME280;39954;48.844;9.726;2023-03-08T00:07:59;94716.09;;;1.10;74.54
54038;BME280;39954;48.844;9.726;2023-03-08T00:09:02;94710.91;;;1.11;73.74
54038;BME280;39954;48.844;9.726;2023-03-08T00:10:08;94716.75;;;1.15;74.31
54038;BME280;39954;48.844;9.726;2023-03-08T00:11:14;94713.53;;;1.10;75.00
54038;BME280;39954;48.844;9.726;2023-03-08T00:12:18;94714.41;;;1.09;74.47
54038;BME280;39954;48.844;9.726;2023-03-08T00:13:21;94728.56;;;1.18;73.92
54038;BME280;39954;48.844;9.726;2023-03-08T00:14:25;94720.91;;;1.18;74.29
54038;BME280;39954;48.844;9.726;2023-03-08T00:15:30;94715.66;;;1.21;73.72
54038;BME280;39954;48.844;9.726;2023-03-08T00:16:32;94723.13;;;1.25;73.38
54038;BME280;39954;48.844;9.726;2023-03-08T00:17:37;94722.28;;;1.25;73.38
54038;BME280;39954;48.844;9.726;2023-03-08T00:18:40;94723.84;;;1.29;73.32
54038;BME280;39954;48.844;9.726;2023-03-08T00:19:44;94722.78;;;1.33;72.91
54038;BME280;39954;48.844;9.726;2023-03-08T00:20:47;94723.84;;;1.29;73.41
54038;BME280;39954;48.844;9.726;2023-03-08T00:21:51;94724.72;;;1.28;74.06
54038;BME280;39954;48.844;9.726;2023-03-08T00:22:54;94749.34;;;1.30;73.67
54038;BME280;39954;48.844;9.726;2023-03-08T00:23:58;94715.13;;;1.33;73.42
54038;BME280;39954;48.844;9.726;2023-03-08T00:25:00;94723.72;;;1.32;73.24
54038;BME280;39954;48.844;9.726;2023-03-08T00:26:05;94718.63;;;1.30;72.91
54038;BME280;39954;48.844;9.726;2023-03-08T00:27:10;94717.94;;;1.27;73.72
54038;BME280;39954;48.844;9.726;2023-03-08T00:28:15;94721.38;;;1.26;73.93
54038;BME280;39954;48.844;9.726;2023-03-08T00:29:17;94723.84;;;1.29;73.28
54038;BME280;39954;48.844;9.726;2023-03-08T00:30:21;94719.53;;;1.29;73.75
54038;BME280;39954;48.844;9.726;2023-03-08T00:31:23;94719.59;;;1.28;73.44
54038;BME280;39954;48.844;9.726;2023-03-08T00:32:28;94720.38;;;1.30;73.04
54038;BME280;39954;48.844;9.726;2023-03-08T00:33:31;94731.38;;;1.32;73.41
54038;BME280;39954;48.844;9.726;2023-03-08T00:34:36;94723.72;;;1.32;73.63
54038;BME280;39954;48.844;9.726;2023-03-08T00:35:38;94725.63;;;1.27;74.00
54038;BME280;39954;48.844;9.726;2023-03-08T00:36:43;94725.75;;;1.24;74.17
54038;BME280;39954;48.844;9.726;2023-03-08T00:37:45;94729.97;;;1.25;73.92
54038;BME280;39954;48.844;9.726;2023-03-08T00:38:50;94721.66;;;1.20;74.31
54038;BME280;39954;48.844;9.726;2023-03-08T00:39:53;94716.59;;;1.18;74.63
54038;BME280;39954;48.844;9.726;2023-03-08T00:40:58;94724.34;;;1.17;74.81
54038;BME280;39954;48.844;9.726;2023-03-08T00:42:00;94723.31;;;1.21;74.28
54038;BME280;39954;48.844;9.726;2023-03-08T00:43:08;94721.59;;;1.21;74.02
54038;BME280;39954;48.844;9.726;2023-03-08T00:44:10;94723.38;;;1.19;74.56
54038;BME280;39954;48.844;9.726;2023-03-08T00:45:14;94723.50;;;1.16;75.22
54038;BME280;39954;48.844;9.726;2023-03-08T00:46:17;94714.19;;;1.15;75.07
54038;BME280;39954;48.844;9.726;2023-03-08T00:47:21;94721.34;;;1.07;75.57
54038;BME280;39954;48.844;9.726;2023-03-08T00:48:24;94717.94;;;1.06;75.60
54038;BME280;39954;48.844;9.726;2023-03-08T00:49:29;94722.47;;;1.00;76.34
54038;BME280;39954;48.844;9.726;2023-03-08T00:50:31;94716.16;;;1.08;75.39
54038;BME280;39954;48.844;9.726;2023-03-08T00:51:36;94720.63;;;1.03;75.96
54038;BME280;39954;48.844;9.726;2023-03-08T00:52:41;94726.63;;;1.02;75.95
54038;BME280;39954;48.844;9.726;2023-03-08T00:53:43;94719.91;;;1.00;76.31
54038;BME280;39954;48.844;9.726;2023-03-08T00:54:48;94722.34;;;1.03;76.04
54038;BME280;39954;48.844;9.726;2023-03-08T00:55:51;94719.91;;;1.00;76.56
54038;BME280;39954;48.844;9.726;2023-03-08T00:56:57;94719.00;;;1.01;76.40
54038;BME280;39954;48.844;9.726;2023-03-08T00:57:59;94719.75;;;1.04;76.12
54038;BME280;39954;48.844;9.726;2023-03-08T00:59:06;94722.56;;;0.98;76.62
54038;BME280;39954;48.844;9.726;2023-03-08T01:00:10;94725.16;;;0.97;76.88
54038;BME280;39954;48.844;9.726;2023-03-08T01:01:17;94723.31;;;1.00;76.60
54038;BME280;39954;48.844;9.726;2023-03-08T01:02:20;94721.34;;;1.07;75.87
54038;BME280;39954;48.844;9.726;2023-03-08T01:03:24;94711.94;;;1.07;75.56
54038;BME280;39954;48.844;9.726;2023-03-08T01:04:27;94715.38;;;1.06;75.59
54038;BME280;39954;48.844;9.726;2023-03-08T01:05:31;94717.94;;;1.06;75.56
54038;BME280;39954;48.844;9.726;2023-03-08T01:06:33;94714.75;;;1.01;76.40
54038;BME280;39954;48.844;9.726;2023-03-08T01:07:38;94702.91;;;0.99;76.14
54038;BME280;39954;48.844;9.726;2023-03-08T01:08:41;94710.63;;;0.97;76.64
54038;BME280;39954;48.844;9.726;2023-03-08T01:09:45;94703.91;;;0.95;76.46
54038;BME280;39954;48.844;9.726;2023-03-08T01:10:48;94705.00;;;0.89;77.08
54038;BME280;39954;48.844;9.726;2023-03-08T01:11:54;94698.38;;;0.85;77.37
54038;BME280;39954;48.844;9.726;2023-03-08T01:12:56;94692.59;;;0.80;77.91
54038;BME280;39954;48.844;9.726;2023-03-08T01:14:00;94687.66;;;0.75;78.51
54038;BME280;39954;48.844;9.726;2023-03-08T01:15:06;94690.22;;;0.75;78.66
54038;BME280;39954;48.844;9.726;2023-03-08T01:16:15;94682.81;;;0.69;79.14
54038;BME280;39954;48.844;9.726;2023-03-08T01:17:18;94688.63;;;0.73;78.51
54038;BME280;39954;48.844;9.726;2023-03-08T01:18:23;94679.47;;;0.67;79.70
54038;BME280;39954;48.844;9.726;2023-03-08T01:19:25;94665.34;;;0.58;80.48
54038;BME280;39954;48.844;9.726;2023-03-08T01:20:30;94674.59;;;0.61;80.27
54038;BME280;39954;48.844;9.726;2023-03-08T01:21:33;94669.56;;;0.59;80.09
54038;BME280;39954;48.844;9.726;2023-03-08T01:22:37;94682.22;;;0.62;80.02
54038;BME280;39954;48.844;9.726;2023-03-08T01:23:39;94668.53;;;0.63;80.14
54038;BME280;39954;48.844;9.726;2023-03-08T01:26:36;94667.25;;;0.53;80.89
54038;BME280;39954;48.844;9.726;2023-03-08T01:27:41;94681.19;;;0.46;82.08
54038;BME280;39954;48.844;9.726;2023-03-08T01:28:43;94683.84;;;0.43;82.22
54038;BME280;39954;48.844;9.726;2023-03-08T01:29:48;94681.06;;;0.49;82.06
54038;BME280;39954;48.844;9.726;2023-03-08T01:30:53;94675.81;;;0.52;82.12
54038;BME280;39954;48.844;9.726;2023-03-08T01:31:58;94675.81;;;0.52;82.71
54038;BME280;39954;48.844;9.726;2023-03-08T01:33:00;94674.03;;;0.54;81.88
54038;BME280;39954;48.844;9.726;2023-03-08T01:34:04;94676.72;;;0.51;82.27
54038;BME280;39954;48.844;9.726;2023-03-08T01:35:07;94677.47;;;0.53;82.32
54038;BME280;39954;48.844;9.726;2023-03-08T01:36:14;94678.25;;;0.55;82.37
54038;BME280;39954;48.844;9.726;2023-03-08T01:37:16;94676.47;;;0.57;81.85
54038;BME280;39954;48.844;9.726;2023-03-08T01:38:22;94685.66;;;0.61;81.75
54038;BME280;39954;48.844;9.726;2023-03-08T01:39:24;94678.00;;;0.61;82.17
54038;BME280;39954;48.844;9.726;2023-03-08T01:40:29;94676.28;;;0.62;82.02
54038;BME280;39954;48.844;9.726;2023-03-08T01:41:31;94677.78;;;0.68;81.39
54038;BME280;39954;48.844;9.726;2023-03-08T01:42:37;94675.09;;;0.71;81.68
54038;BME280;39954;48.844;9.726;2023-03-08T01:43:39;94670.09;;;0.68;82.30
54038;BME280;39954;48.844;9.726;2023-03-08T01:44:49;94681.16;;;0.68;82.02
54038;BME280;39954;48.844;9.726;2023-03-08T01:46:14;94681.19;;;0.66;82.17
54038;BME280;39954;48.844;9.726;2023-03-08T01:47:22;94681.81;;;0.73;81.41
54038;BME280;39954;48.844;9.726;2023-03-08T01:48:30;94672.31;;;0.75;81.33
54038;BME280;39954;48.844;9.726;2023-03-08T01:49:36;94668.06;;;0.76;82.22
54038;BME280;39954;48.844;9.726;2023-03-08T01:50:38;94662.94;;;0.76;81.99
54038;BME280;39954;48.844;9.726;2023-03-08T01:51:47;94664.66;;;0.75;82.21
54038;BME280;39954;48.844;9.726;2023-03-08T01:52:57;94666.50;;;0.72;82.71
54038;BME280;39954;48.844;9.726;2023-03-08T01:54:02;94659.88;;;0.68;82.85
54038;BME280;39954;48.844;9.726;2023-03-08T01:55:09;94657.38;;;0.66;83.69
54038;BME280;39954;48.844;9.726;2023-03-08T01:56:14;94659.63;;;0.74;82.81
54038;BME280;39954;48.844;9.726;2023-03-08T01:57:24;94657.94;;;0.73;83.21
54038;BME280;39954;48.844;9.726;2023-03-08T01:58:27;94653.03;;;0.68;83.17
54038;BME280;39954;48.844;9.726;2023-03-08T01:59:33;94652.25;;;0.66;83.79
54038;BME280;39954;48.844;9.726;2023-03-08T02:00:38;94651.28;;;0.69;83.23
54038;BME280;39954;48.844;9.726;2023-03-08T02:01:44;94641.75;;;0.72;82.56
54038;BME280;39954;48.844;9.726;2023-03-08T02:02:51;94646.81;;;0.74;82.36
54038;BME280;39954;48.844;9.726;2023-03-08T02:03:54;94634.31;;;0.68;83.55
54038;BME280;39954;48.844;9.726;2023-03-08T02:04:58;94637.59;;;0.70;82.79
54038;BME280;39954;48.844;9.726;2023-03-08T02:06:01;94637.72;;;0.66;83.64
54038;BME280;39954;48.844;9.726;2023-03-08T02:07:06;94632.75;;;0.63;83.71
54038;BME280;39954;48.844;9.726;2023-03-08T02:08:08;94630.97;;;0.65;82.86
54038;BME280;39954;48.844;9.726;2023-03-08T02:09:13;94619.91;;;0.65;82.69
54038;BME280;39954;48.844;9.726;2023-03-08T02:10:17;94632.88;;;0.60;83.56
54038;BME280;39954;48.844;9.726;2023-03-08T02:11:23;94637.44;;;0.54;84.21
54038;BME280;39954;48.844;9.726;2023-03-08T02:12:26;94636.78;;;0.49;84.52
54038;BME280;39954;48.844;9.726;2023-03-08T02:13:31;94631.00;;;0.43;85.59
54038;BME280;39954;48.844;9.726;2023-03-08T02:14:33;94627.88;;;0.37;85.91
54038;BME280;39954;48.844;9.726;2023-03-08T02:15:38;94630.66;;;0.31;87.08
54038;BME280;39954;48.844;9.726;2023-03-08T02:16:43;94632.09;;;0.38;86.36
54038;BME280;39954;48.844;9.726;2023-03-08T02:17:47;94631.72;;;0.47;85.29
54038;BME280;39954;48.844;9.726;2023-03-08T02:18:55;94635.16;;;0.46;85.81
54038;BME280;39954;48.844;9.726;2023-03-08T02:20:05;94633.56;;;0.43;86.19
54038;BME280;39954;48.844;9.726;2023-03-08T02:21:08;94635.56;;;0.37;86.44
54038;BME280;39954;48.844;9.726;2023-03-08T02:22:14;94639.81;;;0.36;86.32
54038;BME280;39954;48.844;9.726;2023-03-08T02:23:21;94636.50;;;0.34;86.72
54038;BME280;39954;48.844;9.726;2023-03-08T02:24:26;94641.63;;;0.34;86.58
54038;BME280;39954;48.844;9.726;2023-03-08T02:25:28;94639.09;;;0.33;86.49
54038;BME280;39954;48.844;9.726;2023-03-08T02:26:35;94640.13;;;0.29;86.55
54038;BME280;39954;48.844;9.726;2023-03-08T02:27:38;94639.34;;;0.27;87.66
54038;BME280;39954;48.844;9.726;2023-03-08T02:28:43;94641.13;;;0.25;87.58
54038;BME280;39954;48.844;9.726;2023-03-08T02:29:45;94645.41;;;0.24;87.91
54038;BME280;39954;48.844;9.726;2023-03-08T02:30:50;94639.47;;;0.24;87.93
54038;BME280;39954;48.844;9.726;2023-03-08T02:31:52;94640.19;;;0.27;87.72
54038;BME280;39954;48.844;9.726;2023-03-08T02:32:57;94647.03;;;0.27;88.08
54038;BME280;39954;48.844;9.726;2023-03-08T02:33:59;94638.66;;;0.23;88.95
54038;BME280;39954;48.844;9.726;2023-03-08T02:35:04;94638.56;;;0.25;89.08
54038;BME280;39954;48.844;9.726;2023-03-08T02:36:07;94635.19;;;0.24;88.53
54038;BME280;39954;48.844;9.726;2023-03-08T02:37:13;94630.22;;;0.21;89.86
54038;BME280;39954;48.844;9.726;2023-03-08T02:38:16;94626.75;;;0.22;89.03
54038;BME280;39954;48.844;9.726;2023-03-08T02:39:24;94632.50;;;0.27;89.01
54038;BME280;39954;48.844;9.726;2023-03-08T02:40:26;94626.44;;;0.30;88.85
54038;BME280;39954;48.844;9.726;2023-03-08T02:41:31;94628.22;;;0.28;89.68
54038;BME280;39954;48.844;9.726;2023-03-08T02:42:33;94623.84;;;0.31;89.22
54038;BME280;39954;48.844;9.726;2023-03-08T02:43:37;94621.22;;;0.33;88.83
54038;BME280;39954;48.844;9.726;2023-03-08T02:44:39;94616.19;;;0.31;89.05
54038;BME280;39954;48.844;9.726;2023-03-08T02:45:45;94615.31;;;0.31;89.46
54038;BME280;39954;48.844;9.726;2023-03-08T02:46:47;94607.75;;;0.29;89.70
54038;BME280;39954;48.844;9.726;2023-03-08T02:47:52;94604.34;;;0.29;89.92
54038;BME280;39954;48.844;9.726;2023-03-08T02:48:54;94605.34;;;0.25;90.89
54038;BME280;39954;48.844;9.726;2023-03-08T02:49:58;94594.44;;;0.21;91.59
54038;BME280;39954;48.844;9.726;2023-03-08T02:51:00;94597.13;;;0.18;91.92
54038;BME280;39954;48.844;9.726;2023-03-08T02:52:05;94597.25;;;0.15;91.45
54038;BME280;39954;48.844;9.726;2023-03-08T02:53:08;94598.91;;;0.16;92.43
54038;BME280;39954;48.844;9.726;2023-03-08T02:54:13;94602.28;;;0.16;92.28
54038;BME280;39954;48.844;9.726;2023-03-08T02:55:20;94601.28;;;0.20;91.71
54038;BME280;39954;48.844;9.726;2023-03-08T02:56:24;94609.75;;;0.21;92.08
54038;BME280;39954;48.844;9.726;2023-03-08T02:57:26;94604.34;;;0.29;90.07
54038;BME280;39954;48.844;9.726;2023-03-08T02:58:31;94604.22;;;0.32;89.84
54038;BME280;39954;48.844;9.726;2023-03-08T02:59:33;94602.63;;;0.29;90.84
54038;BME280;39954;48.844;9.726;2023-03-08T03:00:38;94601.84;;;0.27;91.02
54038;BME280;39954;48.844;9.726;2023-03-08T03:01:40;94605.22;;;0.28;91.09
54038;BME280;39954;48.844;9.726;2023-03-08T03:02:45;94606.00;;;0.30;91.28
54038;BME280;39954;48.844;9.726;2023-03-08T03:03:47;94596.44;;;0.35;90.39
54038;BME280;39954;48.844;9.726;2023-03-08T03:04:51;94601.41;;;0.38;90.28
54038;BME280;39954;48.844;9.726;2023-03-08T03:05:53;94594.53;;;0.40;89.78
54038;BME280;39954;48.844;9.726;2023-03-08T03:06:59;94588.38;;;0.44;89.00
54038;BME280;39954;48.844;9.726;2023-03-08T03:08:01;94591.06;;;0.41;89.31
54038;BME280;39954;48.844;9.726;2023-03-08T03:09:06;94594.53;;;0.40;90.31
54038;BME280;39954;48.844;9.726;2023-03-08T03:10:11;94589.53;;;0.37;90.40
54038;BME280;39954;48.844;9.726;2023-03-08T03:11:21;94585.19;;;0.39;90.16
54038;BME280;39954;48.844;9.726;2023-03-08T03:12:23;94584.31;;;0.40;89.94
54038;BME280;39954;48.844;9.726;2023-03-08T03:13:27;94590.38;;;0.37;90.50
54038;BME280;39954;48.844;9.726;2023-03-08T03:14:30;94586.09;;;0.38;90.63
54038;BME280;39954;48.844;9.726;2023-03-08T03:15:36;94587.50;;;0.45;89.18
54038;BME280;39954;48.844;9.726;2023-03-08T03:16:39;94587.50;;;0.45;88.93
54038;BME280;39954;48.844;9.726;2023-03-08T03:17:43;94585.69;;;0.47;89.19
54038;BME280;39954;48.844;9.726;2023-03-08T03:18:46;94582.28;;;0.48;88.41
54038;BME280;39954;48.844;9.726;2023-03-08T03:19:50;94579.75;;;0.47;88.95
54038;BME280;39954;48.844;9.726;2023-03-08T03:20:52;94580.59;;;0.47;89.19
54038;BME280;39954;48.844;9.726;2023-03-08T03:21:57;94579.59;;;0.51;88.39
54038;BME280;39954;48.844;9.726;2023-03-08T03:22:59;94585.56;;;0.50;88.50
54038;BME280;39954;48.844;9.726;2023-03-08T03:24:04;94579.75;;;0.47;89.03
54038;BME280;39954;48.844;9.726;2023-03-08T03:25:07;94580.47;;;0.50;88.75
54038;BME280;39954;48.844;9.726;2023-03-08T03:26:13;94575.47;;;0.47;88.84
54038;BME280;39954;48.844;9.726;2023-03-08T03:27:19;94567.53;;;0.53;88.04
54038;BME280;39954;48.844;9.726;2023-03-08T03:28:23;94565.06;;;0.52;88.19
54038;BME280;39954;48.844;9.726;2023-03-08T03:29:28;94561.81;;;0.48;89.27
54038;BME280;39954;48.844;9.726;2023-03-08T03:30:30;94569.63;;;0.45;89.82
54038;BME280;39954;48.844;9.726;2023-03-08T03:31:35;94568.72;;;0.46;89.39
54038;BME280;39954;48.844;9.726;2023-03-08T03:32:37;94565.13;;;0.50;88.33
54038;BME280;39954;48.844;9.726;2023-03-08T03:33:42;94569.09;;;0.57;87.81
54038;BME280;39954;48.844;9.726;2023-03-08T03:34:46;94563.22;;;0.55;88.09
54038;BME280;39954;48.844;9.726;2023-03-08T03:35:50;94563.97;;;0.57;86.93
54038;BME280;39954;48.844;9.726;2023-03-08T03:36:52;94564.13;;;0.54;87.46
54038;BME280;39954;48.844;9.726;2023-03-08T03:37:57;94556.50;;;0.53;87.75
54038;BME280;39954;48.844;9.726;2023-03-08T03:38:59;94546.84;;;0.59;86.81
54038;BME280;39954;48.844;9.726;2023-03-08T03:40:05;94553.75;;;0.57;87.66
54038;BME280;39954;48.844;9.726;2023-03-08T03:41:09;94546.13;;;0.56;87.75
54038;BME280;39954;48.844;9.726;2023-03-08T03:42:18;94554.03;;;0.51;88.71
54038;BME280;39954;48.844;9.726;2023-03-08T03:43:23;94541.16;;;0.53;88.38
54038;BME280;39954;48.844;9.726;2023-03-08T03:44:27;94541.09;;;0.54;87.82
54038;BME280;39954;48.844;9.726;2023-03-08T03:45:32;94548.69;;;0.56;87.42
54038;BME280;39954;48.844;9.726;2023-03-08T03:46:34;94543.66;;;0.54;88.22
54038;BME280;39954;48.844;9.726;2023-03-08T03:47:39;94548.78;;;0.54;88.08
54038;BME280;39954;48.844;9.726;2023-03-08T03:48:41;94538.41;;;0.57;87.27
54038;BME280;39954;48.844;9.726;2023-03-08T03:49:46;94544.03;;;0.65;86.32
54038;BME280;39954;48.844;9.726;2023-03-08T03:50:53;94537.31;;;0.63;86.49
54038;BME280;39954;48.844;9.726;2023-03-08T03:51:58;94536.69;;;0.58;88.23
54038;BME280;39954;48.844;9.726;2023-03-08T03:53:00;94543.66;;;0.54;88.63
54038;BME280;39954;48.844;9.726;2023-03-08T03:54:05;94535.16;;;0.54;87.85
54038;BME280;39954;48.844;9.726;2023-03-08T03:55:08;94533.56;;;0.51;87.63
54038;BME280;39954;48.844;9.726;2023-03-08T03:56:15;94534.44;;;0.50;88.39
54038;BME280;39954;48.844;9.726;2023-03-08T03:57:21;94543.03;;;0.49;88.36
54038;BME280;39954;48.844;9.726;2023-03-08T03:58:26;94537.22;;;0.46;89.16
54038;BME280;39954;48.844;9.726;2023-03-08T03:59:28;94533.75;;;0.47;87.98
54038;BME280;39954;48.844;9.726;2023-03-08T04:00:34;94535.53;;;0.44;89.51
54038;BME280;39954;48.844;9.726;2023-03-08T04:01:36;94529.59;;;0.44;88.95
54038;BME280;39954;48.844;9.726;2023-03-08T04:02:41;94530.78;;;0.37;90.01
54038;BME280;39954;48.844;9.726;2023-03-08T04:03:43;94521.56;;;0.33;90.80
54038;BME280;39954;48.844;9.726;2023-03-08T04:04:48;94516.56;;;0.30;90.86
54038;BME280;39954;48.844;9.726;2023-03-08T04:05:51;94518.22;;;0.31;90.82
54038;BME280;39954;48.844;9.726;2023-03-08T04:06:56;94516.69;;;0.27;91.28
54038;BME280;39954;48.844;9.726;2023-03-08T04:07:58;94521.38;;;0.37;88.86
54038;BME280;39954;48.844;9.726;2023-03-08T04:09:04;94515.63;;;0.32;89.85
54038;BME280;39954;48.844;9.726;2023-03-08T04:10:07;94519.94;;;0.30;89.75
54038;BME280;39954;48.844;9.726;2023-03-08T04:11:13;94514.84;;;0.30;89.96
54038;BME280;39954;48.844;9.726;2023-03-08T04:12:16;94513.06;;;0.32;89.40
54038;BME280;39954;48.844;9.726;2023-03-08T04:13:23;94508.25;;;0.25;90.14
54038;BME280;39954;48.844;9.726;2023-03-08T04:14:25;94515.19;;;0.22;89.99
54038;BME280;39954;48.844;9.726;2023-03-08T04:15:30;94514.72;;;0.13;91.45
54038;BME280;39954;48.844;9.726;2023-03-08T04:16:33;94520.91;;;0.07;92.03
54038;BME280;39954;48.844;9.726;2023-03-08T04:17:38;94518.53;;;0.03;92.31
54038;BME280;39954;48.844;9.726;2023-03-08T04:18:41;94508.31;;;0.03;91.88
54038;BME280;39954;48.844;9.726;2023-03-08T04:19:47;94510.03;;;0.02;92.32
54038;BME280;39954;48.844;9.726;2023-03-08T04:20:49;94509.16;;;0.03;92.99
54038;BME280;39954;48.844;9.726;2023-03-08T04:21:54;94504.88;;;0.04;92.81
54038;BME280;39954;48.844;9.726;2023-03-08T04:22:56;94502.38;;;0.02;93.29
54038;BME280;39954;48.844;9.726;2023-03-08T04:24:01;94504.28;;;-0.03;94.10
54038;BME280;39954;48.844;9.726;2023-03-08T04:25:04;94498.34;;;-0.04;94.26
54038;BME280;39954;48.844;9.726;2023-03-08T04:26:09;94500.88;;;-0.02;93.21
54038;BME280;39954;48.844;9.726;2023-03-08T04:27:11;94495.63;;;0.01;93.12
54038;BME280;39954;48.844;9.726;2023-03-08T04:28:16;94496.63;;;-0.03;95.17
54038;BME280;39954;48.844;9.726;2023-03-08T04:29:20;94491.78;;;-0.09;95.75
54038;BME280;39954;48.844;9.726;2023-03-08T04:30:25;94489.34;;;-0.12;96.24
54038;BME280;39954;48.844;9.726;2023-03-08T04:31:28;94486.91;;;-0.15;96.64
54038;BME280;39954;48.844;9.726;2023-03-08T04:32:33;94480.91;;;-0.14;96.40
54038;BME280;39954;48.844;9.726;2023-03-08T04:33:35;94477.75;;;-0.19;96.19
54038;BME280;39954;48.844;9.726;2023-03-08T04:34:40;94487.09;;;-0.20;97.79
54038;BME280;39954;48.844;9.726;2023-03-08T04:35:43;94477.22;;;-0.28;98.06
54038;BME280;39954;48.844;9.726;2023-03-08T04:36:48;94479.13;;;-0.33;99.25
54038;BME280;39954;48.844;9.726;2023-03-08T04:37:53;94477.38;;;-0.32;99.67
54038;BME280;39954;48.844;9.726;2023-03-08T04:38:55;94479.78;;;-0.28;98.74
54038;BME280;39954;48.844;9.726;2023-03-08T04:40:00;94479.78;;;-0.28;99.31
54038;BME280;39954;48.844;9.726;2023-03-08T04:41:02;94471.47;;;-0.33;99.79
54038;BME280;39954;48.844;9.726;2023-03-08T04:42:06;94477.50;;;-0.35;99.98
54038;BME280;39954;48.844;9.726;2023-03-08T04:43:11;94481.66;;;-0.33;100.00
54038;BME280;39954;48.844;9.726;2023-03-08T04:44:13;94479.78;;;-0.28;99.99
54038;BME280;39954;48.844;9.726;2023-03-08T04:45:20;94479.63;;;-0.25;99.52
54038;BME280;39954;48.844;9.726;2023-03-08T04:46:25;94481.28;;;-0.24;99.26
54038;BME280;39954;48.844;9.726;2023-03-08T04:47:30;94486.28;;;-0.20;99.00
54038;BME280;39954;48.844;9.726;2023-03-08T04:48:32;94488.25;;;-0.07;97.29
54038;BME280;39954;48.844;9.726;2023-03-08T04:49:37;94480.31;;;0.01;96.88
54038;BME280;39954;48.844;9.726;2023-03-08T04:50:39;94479.03;;;0.11;95.17
54038;BME280;39954;48.844;9.726;2023-03-08T04:51:44;94471.97;;;0.16;95.37
54038;BME280;39954;48.844;9.726;2023-03-08T04:52:49;94476.91;;;0.21;94.96
54038;BME280;39954;48.844;9.726;2023-03-08T04:53:51;94477.59;;;0.25;94.09
54038;BME280;39954;48.844;9.726;2023-03-08T04:54:56;94474.16;;;0.26;94.17
54038;BME280;39954;48.844;9.726;2023-03-08T04:55:58;94468.97;;;0.27;93.60
54038;BME280;39954;48.844;9.726;2023-03-08T04:57:03;94475.69;;;0.30;94.00
54038;BME280;39954;48.844;9.726;2023-03-08T04:58:05;94472.22;;;0.31;92.63
54038;BME280;39954;48.844;9.726;2023-03-08T04:59:10;94472.88;;;0.36;91.24
54038;BME280;39954;48.844;9.726;2023-03-08T05:00:13;94481.44;;;0.35;92.30
54038;BME280;39954;48.844;9.726;2023-03-08T05:01:21;94474.53;;;0.37;92.33
54038;BME280;39954;48.844;9.726;2023-03-08T05:02:26;94475.38;;;0.37;91.20
54038;BME280;39954;48.844;9.726;2023-03-08T05:03:28;94475.41;;;0.36;92.19
54038;BME280;39954;48.844;9.726;2023-03-08T05:04:33;94477.22;;;0.34;91.75
54038;BME280;39954;48.844;9.726;2023-03-08T05:05:35;94461.97;;;0.32;91.20
54038;BME280;39954;48.844;9.726;2023-03-08T05:06:40;94475.69;;;0.30;91.96
54038;BME280;39954;48.844;9.726;2023-03-08T05:07:42;94472.34;;;0.28;92.94
54038;BME280;39954;48.844;9.726;2023-03-08T05:08:47;94468.16;;;0.27;93.10
54038;BME280;39954;48.844;9.726;2023-03-08T05:09:51;94466.50;;;0.26;92.69
54038;BME280;39954;48.844;9.726;2023-03-08T05:10:55;94457.28;;;0.21;93.47
54038;BME280;39954;48.844;9.726;2023-03-08T05:12:02;94462.41;;;0.21;93.22
54038;BME280;39954;48.844;9.726;2023-03-08T05:13:04;94452.19;;;0.21;93.77
54038;BME280;39954;48.844;9.726;2023-03-08T05:14:09;94453.97;;;0.19;93.32
54038;BME280;39954;48.844;9.726;2023-03-08T05:15:11;94449.72;;;0.20;93.90
54038;BME280;39954;48.844;9.726;2023-03-08T05:16:15;94448.84;;;0.19;94.26
54038;BME280;39954;48.844;9.726;2023-03-08T05:17:20;94443.75;;;0.19;93.69
54038;BME280;39954;48.844;9.726;2023-03-08T05:18:25;94459.06;;;0.19;94.50
54038;BME280;39954;48.844;9.726;2023-03-08T05:19:27;94435.97;;;0.22;94.25
54038;BME280;39954;48.844;9.726;2023-03-08T05:20:32;94441.09;;;0.22;93.86
54038;BME280;39954;48.844;9.726;2023-03-08T05:21:34;94442.78;;;0.22;94.23
54038;BME280;39954;48.844;9.726;2023-03-08T05:22:39;94439.53;;;0.18;94.41
54038;BME280;39954;48.844;9.726;2023-03-08T05:23:59;94429.28;;;0.20;93.21
54038;BME280;39954;48.844;9.726;2023-03-08T05:25:04;94429.31;;;0.18;94.07
54038;BME280;39954;48.844;9.726;2023-03-08T05:26:07;94431.09;;;0.16;94.27
54038;BME280;39954;48.844;9.726;2023-03-08T05:27:14;94426.91;;;0.15;94.51
54038;BME280;39954;48.844;9.726;2023-03-08T05:28:16;94424.41;;;0.14;94.22
54038;BME280;39954;48.844;9.726;2023-03-08T05:29:20;94428.56;;;0.16;93.72
54038;BME280;39954;48.844;9.726;2023-03-08T05:30:23;94424.41;;;0.14;94.03
54038;BME280;39954;48.844;9.726;2023-03-08T05:31:28;94430.09;;;0.20;94.37
54038;BME280;39954;48.844;9.726;2023-03-08T05:32:33;94422.22;;;0.25;94.03
54038;BME280;39954;48.844;9.726;2023-03-08T05:33:38;94423.06;;;0.26;92.46
54038;BME280;39954;48.844;9.726;2023-03-08T05:34:40;94424.59;;;0.30;92.86
54038;BME280;39954;48.844;9.726;2023-03-08T05:35:51;94417.09;;;0.25;93.10
54038;BME280;39954;48.844;9.726;2023-03-08T05:36:55;94421.34;;;0.26;91.68
54038;BME280;39954;48.844;9.726;2023-03-08T05:38:00;94421.25;;;0.28;91.52
54038;BME280;39954;48.844;9.726;2023-03-08T05:39:02;94414.44;;;0.28;91.36
54038;BME280;39954;48.844;9.726;2023-03-08T05:40:09;94420.44;;;0.27;91.41
54038;BME280;39954;48.844;9.726;2023-03-08T05:41:12;94417.06;;;0.27;92.01
54038;BME280;39954;48.844;9.726;2023-03-08T05:42:18;94417.19;;;0.24;92.12
54038;BME280;39954;48.844;9.726;2023-03-08T05:43:21;94418.91;;;0.23;92.38
54038;BME280;39954;48.844;9.726;2023-03-08T05:44:25;94417.25;;;0.22;93.03
54038;BME280;39954;48.844;9.726;2023-03-08T05:45:27;94408.69;;;0.23;92.89
54038;BME280;39954;48.844;9.726;2023-03-08T05:46:32;94413.69;;;0.26;92.80